Terminal Aerodrome Forecast
Issued by NWS

Home | Current Version | Previous Version | Text Only | Print | Product List | Glossary On
Versions: 1 2 3 4 5 6 7 8 9 10 11 12 13 14 15 16 17 18
000
FTUS45 KBOI 222320
TAFJER
TAF
KJER 222320Z 2300/2324 08009KT P6SM VCSH OVC070
     FM230300 08009KT 2SM -SN BR OVC020
      TEMPO 2303/2307 1SM -SN OVC010
     FM230700 08006KT P6SM VCSH OVC040
     FM231800 25012G18KT 2SM -SN BR OVC020
      TEMPO 2320/2324 1SM -SN BR OVC010=

USA.gov is the U.S. government's official web portal to all federal, state and local government web resources and services.